createdAt,value
2023-03-26T00:03:11.389Z,7.64
2023-03-26T00:08:23.278Z,7.65
2023-03-26T00:13:28.767Z,7.65
2023-03-26T00:18:31.832Z,7.62
2023-03-26T00:23:35.524Z,7.59
2023-03-26T00:28:40.650Z,7.57
2023-03-26T00:33:46.167Z,7.54
2023-03-26T00:38:59.181Z,7.51
2023-03-26T00:44:24.274Z,7.49
2023-03-26T00:49:32.037Z,7.45
2023-03-26T00:55:16.190Z,7.40
2023-03-26T01:00:29.376Z,7.33
2023-03-26T01:05:48.758Z,7.22
2023-03-26T01:11:08.848Z,7.09
2023-03-26T01:16:25.008Z,6.96
2023-03-26T01:21:31.804Z,6.84
2023-03-26T01:26:40.000Z,6.71
2023-03-26T01:32:35.651Z,6.62
2023-03-26T01:38:39.983Z,6.56
2023-03-26T01:43:59.103Z,6.55
2023-03-26T01:49:13.641Z,6.55
2023-03-26T01:54:29.761Z,6.58
2023-03-26T02:00:18.605Z,6.64
2023-03-26T02:05:54.133Z,6.73
2023-03-26T02:11:04.562Z,6.80
2023-03-26T02:16:12.083Z,6.87
2023-03-26T02:21:23.827Z,6.93
2023-03-26T02:26:31.806Z,6.92
2023-03-26T02:31:53.538Z,6.86
2023-03-26T02:36:58.961Z,6.79
2023-03-26T02:42:02.450Z,6.73
2023-03-26T02:47:09.567Z,6.71
2023-03-26T02:52:56.644Z,6.71
2023-03-26T02:58:02.988Z,6.72
2023-03-26T03:03:26.200Z,6.72
2023-03-26T03:08:54.111Z,6.73
2023-03-26T03:14:26.418Z,6.74
2023-03-26T03:19:31.578Z,6.74
2023-03-26T03:24:34.076Z,6.72
2023-03-26T03:29:41.400Z,6.69
2023-03-26T03:35:04.653Z,6.69
2023-03-26T03:40:11.166Z,6.73
2023-03-26T03:45:19.552Z,6.76
2023-03-26T03:50:46.513Z,6.77
2023-03-26T03:56:19.327Z,6.76
2023-03-26T04:01:46.757Z,6.75
2023-03-26T04:07:09.706Z,6.74
2023-03-26T04:12:28.911Z,6.75
2023-03-26T04:17:56.479Z,6.76
2023-03-26T04:23:32.844Z,6.76
2023-03-26T04:28:59.563Z,6.73
2023-03-26T04:34:14.838Z,6.66
2023-03-26T04:39:44.899Z,6.61
2023-03-26T04:45:34.514Z,6.60
2023-03-26T04:50:40.313Z,6.62
2023-03-26T04:55:57.348Z,6.63
2023-03-26T05:01:24.554Z,6.64
2023-03-26T05:06:34.907Z,6.65
2023-03-26T05:11:48.380Z,6.63
2023-03-26T05:16:54.106Z,6.61
2023-03-26T05:21:59.628Z,6.59
2023-03-26T05:27:20.206Z,6.61
2023-03-26T05:32:25.447Z,6.63
2023-03-26T05:37:33.785Z,6.68
2023-03-26T05:42:43.433Z,6.76
2023-03-26T05:48:06.867Z,6.90
2023-03-26T05:53:09.688Z,7.04
2023-03-26T05:59:05.078Z,7.19
2023-03-26T06:04:37.158Z,7.33
2023-03-26T06:10:03.226Z,7.53
2023-03-26T06:15:18.228Z,7.68
2023-03-26T06:20:30.741Z,7.80
2023-03-26T06:25:54.096Z,7.91
2023-03-26T06:31:26.301Z,7.94
2023-03-26T06:37:28.106Z,7.97
2023-03-26T06:43:07.562Z,7.99
2023-03-26T06:48:43.563Z,8.09
2023-03-26T06:54:24.442Z,8.10
2023-03-26T06:59:46.448Z,8.08
2023-03-26T07:05:26.050Z,8.05
2023-03-26T07:11:10.070Z,8.02
2023-03-26T07:16:35.941Z,8.14
2023-03-26T07:22:09.506Z,8.35
2023-03-26T07:28:30.160Z,8.54
2023-03-26T07:34:19.677Z,8.83
2023-03-26T07:40:15.405Z,9.06
2023-03-26T07:45:50.606Z,9.30
2023-03-26T07:51:22.130Z,9.64
2023-03-26T07:56:49.069Z,9.92
2023-03-26T08:02:33.108Z,10.02
2023-03-26T08:08:37.824Z,10.16
2023-03-26T08:14:57.409Z,10.14
2023-03-26T08:20:38.825Z,10.12
2023-03-26T08:26:30.973Z,10.34
2023-03-26T08:31:44.590Z,10.60
2023-03-26T08:36:49.492Z,10.74
2023-03-26T08:43:11.812Z,10.73
2023-03-26T08:48:51.514Z,10.71
2023-03-26T08:54:49.630Z,10.64
2023-03-26T09:00:52.174Z,10.60
2023-03-26T09:06:27.418Z,10.60
2023-03-26T09:12:16.188Z,10.86
2023-03-26T09:17:51.421Z,10.97
2023-03-26T09:23:12.993Z,10.88
2023-03-26T09:28:38.267Z,10.73
2023-03-26T09:34:27.491Z,10.47
2023-03-26T09:39:37.939Z,10.16
2023-03-26T09:44:48.725Z,10.10
2023-03-26T09:50:34.405Z,10.12
2023-03-26T09:56:22.163Z,10.21
2023-03-26T10:01:49.592Z,10.37
2023-03-26T10:07:10.461Z,10.68
2023-03-26T10:12:41.464Z,11.11
2023-03-26T10:18:27.653Z,11.63
2023-03-26T10:24:08.093Z,11.92
2023-03-26T10:30:07.851Z,12.05
2023-03-26T10:35:32.061Z,11.95
2023-03-26T10:40:55.089Z,11.75
2023-03-26T10:47:06.912Z,11.71
2023-03-26T10:52:17.524Z,12.06
2023-03-26T10:57:52.666Z,12.42
2023-03-26T11:03:23.808Z,12.79
2023-03-26T11:08:56.922Z,13.02
2023-03-26T11:14:27.982Z,13.32
2023-03-26T11:19:48.555Z,13.56
2023-03-26T11:25:18.615Z,13.65
2023-03-26T11:30:46.253Z,13.80
2023-03-26T11:36:23.874Z,13.77
2023-03-26T11:41:31.178Z,13.76
2023-03-26T11:47:04.524Z,13.95
2023-03-26T11:52:12.256Z,14.19
2023-03-26T11:57:22.447Z,14.36
2023-03-26T12:02:32.569Z,14.32
2023-03-26T12:07:57.967Z,14.29
2023-03-26T12:13:26.993Z,14.24
2023-03-26T12:18:29.806Z,14.10
2023-03-26T12:23:38.822Z,14.06
2023-03-26T12:28:47.300Z,14.01
2023-03-26T12:34:16.193Z,13.84
2023-03-26T12:40:09.380Z,13.63
2023-03-26T12:45:29.726Z,13.54
2023-03-26T12:50:57.798Z,13.72
2023-03-26T12:56:12.672Z,13.78
2023-03-26T13:01:24.469Z,13.76
2023-03-26T13:07:48.364Z,13.74
2023-03-26T13:14:00.380Z,13.65
2023-03-26T13:19:11.033Z,13.77
2023-03-26T13:24:20.318Z,13.79
2023-03-26T13:29:32.127Z,13.87
2023-03-26T13:34:58.213Z,13.91
2023-03-26T13:40:17.189Z,13.79
2023-03-26T13:46:02.162Z,13.63
2023-03-26T13:51:09.864Z,13.56
2023-03-26T13:56:20.211Z,13.61
2023-03-26T14:01:41.315Z,13.74
2023-03-26T14:06:57.569Z,13.86
2023-03-26T14:12:44.714Z,13.91
2023-03-26T14:18:39.311Z,13.81
2023-03-26T14:24:24.915Z,13.73
2023-03-26T14:29:56.354Z,13.65
2023-03-26T14:35:05.801Z,13.51
2023-03-26T14:40:25.287Z,13.32
2023-03-26T14:46:14.363Z,13.36
2023-03-26T14:52:13.654Z,13.47
2023-03-26T14:57:37.864Z,13.55
2023-03-26T15:03:16.924Z,13.57
2023-03-26T15:09:21.977Z,13.58
2023-03-26T15:15:09.912Z,13.61
2023-03-26T15:20:49.800Z,13.56
2023-03-26T15:26:27.579Z,13.40
2023-03-26T15:32:17.152Z,13.26
2023-03-26T15:38:09.188Z,13.10
2023-03-26T15:43:22.517Z,13.01
2023-03-26T15:48:43.587Z,13.09
2023-03-26T15:54:22.765Z,13.16
2023-03-26T15:59:52.399Z,13.13
2023-03-26T16:05:03.246Z,12.99
2023-03-26T16:10:41.384Z,12.84
2023-03-26T16:15:53.276Z,12.69
2023-03-26T16:21:31.299Z,12.57
2023-03-26T16:27:05.409Z,12.45
2023-03-26T16:32:17.891Z,12.32
2023-03-26T16:37:37.106Z,12.18
2023-03-26T16:42:55.501Z,12.02
2023-03-26T16:48:23.814Z,11.85
2023-03-26T16:53:57.890Z,11.68
2023-03-26T16:59:40.778Z,11.54
2023-03-26T17:04:53.778Z,11.39
2023-03-26T17:10:15.284Z,11.24
2023-03-26T17:16:14.588Z,11.10
2023-03-26T17:21:25.184Z,10.96
2023-03-26T17:26:52.235Z,10.81
2023-03-26T17:32:11.626Z,10.63
2023-03-26T17:37:16.973Z,10.47
2023-03-26T17:43:04.853Z,10.34
2023-03-26T17:48:21.850Z,10.19
2023-03-26T17:53:34.580Z,10.10
2023-03-26T17:58:52.651Z,10.02
2023-03-26T18:04:03.723Z,9.95
2023-03-26T18:09:24.122Z,9.89
2023-03-26T18:15:36.392Z,9.84
2023-03-26T18:20:39.121Z,9.81
2023-03-26T18:25:56.739Z,9.81
2023-03-26T18:31:26.576Z,9.80
2023-03-26T18:36:32.348Z,9.79
2023-03-26T18:41:41.866Z,9.75
2023-03-26T18:46:47.098Z,9.69
2023-03-26T18:51:56.904Z,9.61
2023-03-26T18:57:15.479Z,9.52
2023-03-26T19:02:28.597Z,9.44
2023-03-26T19:07:35.952Z,9.35
2023-03-26T19:12:38.898Z,9.28
2023-03-26T19:17:56.751Z,9.25
2023-03-26T19:23:16.261Z,9.22
2023-03-26T19:28:53.390Z,9.15
2023-03-26T19:34:05.460Z,9.06
2023-03-26T19:39:13.108Z,8.98
2023-03-26T19:44:28.568Z,8.89
2023-03-26T19:49:58.519Z,8.79
2023-03-26T19:55:20.545Z,8.69
2023-03-26T20:00:22.889Z,8.53
2023-03-26T20:05:28.777Z,8.40
2023-03-26T20:10:33.960Z,8.30
2023-03-26T20:16:05.902Z,8.23
2023-03-26T20:21:14.461Z,8.16
2023-03-26T20:26:24.361Z,8.08
2023-03-26T20:31:28.255Z,8.02
2023-03-26T20:36:39.702Z,8.02
2023-03-26T20:41:48.312Z,8.06
2023-03-26T20:46:51.728Z,8.07
2023-03-26T20:51:54.184Z,8.06
2023-03-26T20:56:58.907Z,8.03
2023-03-26T21:02:08.645Z,7.96
2023-03-26T21:07:18.099Z,7.92
2023-03-26T21:12:30.451Z,7.88
2023-03-26T21:17:36.417Z,7.84
2023-03-26T21:23:12.733Z,7.81
2023-03-26T21:28:42.377Z,7.80
2023-03-26T21:33:49.467Z,7.82
2023-03-26T21:38:54.751Z,7.79
2023-03-26T21:44:02.551Z,7.79
2023-03-26T21:49:17.872Z,7.77
2023-03-26T21:54:33.109Z,7.72
2023-03-26T21:59:51.904Z,7.70
2023-03-26T22:05:01.128Z,7.67
2023-03-26T22:10:06.548Z,7.63
2023-03-26T22:15:15.049Z,7.61
2023-03-26T22:20:19.496Z,7.61
2023-03-26T22:25:23.451Z,7.60
2023-03-26T22:30:36.811Z,7.60
2023-03-26T22:35:41.988Z,7.60
2023-03-26T22:40:44.780Z,7.60
2023-03-26T22:45:50.769Z,7.60
2023-03-26T22:51:04.878Z,7.58
2023-03-26T22:56:15.265Z,7.57
2023-03-26T23:01:28.848Z,7.56
2023-03-26T23:06:37.087Z,7.53
2023-03-26T23:11:43.566Z,7.52
2023-03-26T23:17:01.698Z,7.49
2023-03-26T23:22:14.977Z,7.49
2023-03-26T23:27:18.056Z,7.48
2023-03-26T23:32:28.229Z,7.48
2023-03-26T23:37:38.566Z,7.46
2023-03-26T23:42:42.965Z,7.43
2023-03-26T23:47:50.677Z,7.42
2023-03-26T23:52:57.997Z,7.44
2023-03-26T23:58:00.614Z,7.43
